sensor_id;sensor_type;location;lat;lon;timestamp;P1;durP1;ratioP1;P2;durP2;ratioP2
15327;SDS011;7764;51.430;6.840;2024-01-11T00:00:34;55.53;;;27.50;;
15327;SDS011;7764;51.430;6.840;2024-01-11T00:03:02;63.00;;;29.40;;
15327;SDS011;7764;51.430;6.840;2024-01-11T00:05:29;55.87;;;26.83;;
15327;SDS011;7764;51.430;6.840;2024-01-11T00:07:57;53.60;;;25.77;;
15327;SDS011;7764;51.430;6.840;2024-01-11T00:10:24;53.57;;;26.50;;
15327;SDS011;7764;51.430;6.840;2024-01-11T00:12:51;58.67;;;26.97;;
15327;SDS011;7764;51.430;6.840;2024-01-11T00:15:19;54.87;;;27.67;;
15327;SDS011;7764;51.430;6.840;2024-01-11T00:17:46;57.63;;;27.43;;
15327;SDS011;7764;51.430;6.840;2024-01-11T00:20:13;55.97;;;27.90;;
15327;SDS011;7764;51.430;6.840;2024-01-11T00:22:40;58.40;;;28.43;;
15327;SDS011;7764;51.430;6.840;2024-01-11T00:25:09;59.87;;;27.87;;
15327;SDS011;7764;51.430;6.840;2024-01-11T00:27:36;58.77;;;28.37;;
15327;SDS011;7764;51.430;6.840;2024-01-11T00:30:03;55.87;;;27.80;;
15327;SDS011;7764;51.430;6.840;2024-01-11T00:32:31;59.93;;;28.50;;
15327;SDS011;7764;51.430;6.840;2024-01-11T00:34:58;53.37;;;27.53;;
15327;SDS011;7764;51.430;6.840;2024-01-11T00:37:25;55.73;;;27.53;;
15327;SDS011;7764;51.430;6.840;2024-01-11T00:39:52;57.40;;;26.93;;
15327;SDS011;7764;51.430;6.840;2024-01-11T00:42:21;58.73;;;27.93;;
15327;SDS011;7764;51.430;6.840;2024-01-11T00:44:48;58.07;;;28.17;;
15327;SDS011;7764;51.430;6.840;2024-01-11T00:47:15;55.83;;;28.40;;
15327;SDS011;7764;51.430;6.840;2024-01-11T00:49:42;55.00;;;27.57;;
15327;SDS011;7764;51.430;6.840;2024-01-11T00:52:10;58.57;;;28.30;;
15327;SDS011;7764;51.430;6.840;2024-01-11T00:54:38;57.80;;;29.47;;
15327;SDS011;7764;51.430;6.840;2024-01-11T00:57:06;64.53;;;28.27;;
15327;SDS011;7764;51.430;6.840;2024-01-11T00:59:34;57.50;;;28.33;;
15327;SDS011;7764;51.430;6.840;2024-01-11T01:02:02;58.27;;;28.60;;
15327;SDS011;7764;51.430;6.840;2024-01-11T01:04:29;56.27;;;28.30;;
15327;SDS011;7764;51.430;6.840;2024-01-11T01:06:56;61.07;;;28.13;;
15327;SDS011;7764;51.430;6.840;2024-01-11T01:09:23;60.07;;;29.27;;
15327;SDS011;7764;51.430;6.840;2024-01-11T01:11:50;61.93;;;29.00;;
15327;SDS011;7764;51.430;6.840;2024-01-11T01:14:18;61.87;;;29.60;;
15327;SDS011;7764;51.430;6.840;2024-01-11T01:16:46;55.77;;;28.30;;
15327;SDS011;7764;51.430;6.840;2024-01-11T01:19:13;61.90;;;28.87;;
15327;SDS011;7764;51.430;6.840;2024-01-11T01:21:40;57.13;;;28.47;;
15327;SDS011;7764;51.430;6.840;2024-01-11T01:24:07;59.93;;;27.47;;
15327;SDS011;7764;51.430;6.840;2024-01-11T01:26:34;56.73;;;29.20;;
15327;SDS011;7764;51.430;6.840;2024-01-11T01:29:02;57.70;;;27.87;;
15327;SDS011;7764;51.430;6.840;2024-01-11T01:31:29;61.80;;;28.47;;
15327;SDS011;7764;51.430;6.840;2024-01-11T01:34:03;58.97;;;27.90;;
15327;SDS011;7764;51.430;6.840;2024-01-11T01:36:30;56.17;;;27.20;;
15327;SDS011;7764;51.430;6.840;2024-01-11T01:38:58;61.13;;;28.73;;
15327;SDS011;7764;51.430;6.840;2024-01-11T01:41:25;57.93;;;28.77;;
15327;SDS011;7764;51.430;6.840;2024-01-11T01:43:52;61.00;;;29.03;;
15327;SDS011;7764;51.430;6.840;2024-01-11T01:46:19;57.93;;;29.20;;
15327;SDS011;7764;51.430;6.840;2024-01-11T01:48:48;59.13;;;28.70;;
15327;SDS011;7764;51.430;6.840;2024-01-11T01:51:17;59.67;;;29.73;;
15327;SDS011;7764;51.430;6.840;2024-01-11T01:53:44;62.30;;;29.97;;
15327;SDS011;7764;51.430;6.840;2024-01-11T01:56:11;54.13;;;28.17;;
15327;SDS011;7764;51.430;6.840;2024-01-11T01:58:39;64.73;;;29.83;;
15327;SDS011;7764;51.430;6.840;2024-01-11T02:01:08;56.33;;;28.27;;
15327;SDS011;7764;51.430;6.840;2024-01-11T02:03:35;55.77;;;28.77;;
15327;SDS011;7764;51.430;6.840;2024-01-11T02:06:03;61.43;;;28.50;;
15327;SDS011;7764;51.430;6.840;2024-01-11T02:08:33;61.53;;;29.83;;
15327;SDS011;7764;51.430;6.840;2024-01-11T02:11:01;61.40;;;30.37;;
15327;SDS011;7764;51.430;6.840;2024-01-11T02:13:28;60.60;;;28.43;;
15327;SDS011;7764;51.430;6.840;2024-01-11T02:15:55;61.63;;;29.20;;
15327;SDS011;7764;51.430;6.840;2024-01-11T02:18:22;56.90;;;28.83;;
15327;SDS011;7764;51.430;6.840;2024-01-11T02:20:49;58.80;;;29.10;;
15327;SDS011;7764;51.430;6.840;2024-01-11T02:23:17;60.60;;;30.13;;
15327;SDS011;7764;51.430;6.840;2024-01-11T02:25:47;64.67;;;29.37;;
15327;SDS011;7764;51.430;6.840;2024-01-11T02:28:14;62.37;;;30.63;;
15327;SDS011;7764;51.430;6.840;2024-01-11T02:30:41;58.33;;;29.23;;
15327;SDS011;7764;51.430;6.840;2024-01-11T02:33:08;61.77;;;30.97;;
15327;SDS011;7764;51.430;6.840;2024-01-11T02:35:37;64.37;;;31.13;;
15327;SDS011;7764;51.430;6.840;2024-01-11T02:38:06;72.13;;;30.87;;
15327;SDS011;7764;51.430;6.840;2024-01-11T02:40:33;60.07;;;29.60;;
15327;SDS011;7764;51.430;6.840;2024-01-11T02:43:08;67.83;;;31.20;;
15327;SDS011;7764;51.430;6.840;2024-01-11T02:45:35;61.83;;;29.17;;
15327;SDS011;7764;51.430;6.840;2024-01-11T02:48:02;63.73;;;31.17;;
15327;SDS011;7764;51.430;6.840;2024-01-11T02:50:30;61.53;;;31.27;;
15327;SDS011;7764;51.430;6.840;2024-01-11T02:52:57;67.17;;;31.77;;
15327;SDS011;7764;51.430;6.840;2024-01-11T02:55:24;68.33;;;32.27;;
15327;SDS011;7764;51.430;6.840;2024-01-11T02:57:51;69.53;;;32.20;;
15327;SDS011;7764;51.430;6.840;2024-01-11T03:00:20;68.17;;;32.13;;
15327;SDS011;7764;51.430;6.840;2024-01-11T03:02:47;63.90;;;32.80;;
15327;SDS011;7764;51.430;6.840;2024-01-11T03:05:14;70.27;;;33.27;;
15327;SDS011;7764;51.430;6.840;2024-01-11T03:07:41;64.73;;;31.80;;
15327;SDS011;7764;51.430;6.840;2024-01-11T03:10:08;69.20;;;33.63;;
15327;SDS011;7764;51.430;6.840;2024-01-11T03:12:35;66.77;;;32.53;;
15327;SDS011;7764;51.430;6.840;2024-01-11T03:15:03;68.50;;;32.33;;
15327;SDS011;7764;51.430;6.840;2024-01-11T03:17:31;63.33;;;31.67;;
15327;SDS011;7764;51.430;6.840;2024-01-11T03:19:58;65.63;;;32.37;;
15327;SDS011;7764;51.430;6.840;2024-01-11T03:22:26;68.53;;;32.23;;
15327;SDS011;7764;51.430;6.840;2024-01-11T03:24:53;66.17;;;31.70;;
15327;SDS011;7764;51.430;6.840;2024-01-11T03:27:20;71.70;;;33.20;;
15327;SDS011;7764;51.430;6.840;2024-01-11T03:29:47;67.93;;;32.87;;
15327;SDS011;7764;51.430;6.840;2024-01-11T03:32:15;64.10;;;31.70;;
15327;SDS011;7764;51.430;6.840;2024-01-11T03:34:43;70.33;;;32.40;;
15327;SDS011;7764;51.430;6.840;2024-01-11T03:37:11;66.13;;;33.07;;
15327;SDS011;7764;51.430;6.840;2024-01-11T03:39:38;67.93;;;33.23;;
15327;SDS011;7764;51.430;6.840;2024-01-11T03:42:05;68.33;;;32.27;;
15327;SDS011;7764;51.430;6.840;2024-01-11T03:44:32;71.20;;;33.93;;
15327;SDS011;7764;51.430;6.840;2024-01-11T03:46:59;78.00;;;36.70;;
15327;SDS011;7764;51.430;6.840;2024-01-11T03:49:26;62.37;;;31.93;;
15327;SDS011;7764;51.430;6.840;2024-01-11T03:51:55;69.00;;;32.70;;
15327;SDS011;7764;51.430;6.840;2024-01-11T03:54:22;66.70;;;32.30;;
15327;SDS011;7764;51.430;6.840;2024-01-11T03:56:49;62.50;;;31.57;;
15327;SDS011;7764;51.430;6.840;2024-01-11T03:59:16;67.10;;;32.27;;
15327;SDS011;7764;51.430;6.840;2024-01-11T04:01:43;73.13;;;31.67;;
15327;SDS011;7764;51.430;6.840;2024-01-11T04:04:10;64.83;;;30.97;;
15327;SDS011;7764;51.430;6.840;2024-01-11T04:06:38;64.97;;;32.00;;
15327;SDS011;7764;51.430;6.840;2024-01-11T04:09:06;66.67;;;32.37;;
15327;SDS011;7764;51.430;6.840;2024-01-11T04:11:33;71.30;;;31.90;;
15327;SDS011;7764;51.430;6.840;2024-01-11T04:14:00;68.17;;;32.33;;
15327;SDS011;7764;51.430;6.840;2024-01-11T04:16:28;63.67;;;30.53;;
15327;SDS011;7764;51.430;6.840;2024-01-11T04:18:55;68.23;;;31.00;;
15327;SDS011;7764;51.430;6.840;2024-01-11T04:21:22;63.03;;;30.70;;
15327;SDS011;7764;51.430;6.840;2024-01-11T04:23:49;63.67;;;30.00;;
15327;SDS011;7764;51.430;6.840;2024-01-11T04:26:18;66.50;;;30.73;;
15327;SDS011;7764;51.430;6.840;2024-01-11T04:28:45;63.03;;;31.27;;
15327;SDS011;7764;51.430;6.840;2024-01-11T04:31:13;62.13;;;31.07;;
15327;SDS011;7764;51.430;6.840;2024-01-11T04:33:42;67.10;;;32.13;;
15327;SDS011;7764;51.430;6.840;2024-01-11T04:36:09;66.63;;;30.90;;
15327;SDS011;7764;51.430;6.840;2024-01-11T04:38:36;63.87;;;32.27;;
15327;SDS011;7764;51.430;6.840;2024-01-11T04:41:07;63.63;;;30.70;;
15327;SDS011;7764;51.430;6.840;2024-01-11T04:43:36;62.70;;;31.60;;
15327;SDS011;7764;51.430;6.840;2024-01-11T04:46:10;67.47;;;30.33;;
15327;SDS011;7764;51.430;6.840;2024-01-11T04:48:39;64.40;;;31.87;;
15327;SDS011;7764;51.430;6.840;2024-01-11T04:51:06;69.90;;;32.33;;
15327;SDS011;7764;51.430;6.840;2024-01-11T04:53:33;64.10;;;30.93;;
15327;SDS011;7764;51.430;6.840;2024-01-11T04:56:02;63.97;;;30.50;;
15327;SDS011;7764;51.430;6.840;2024-01-11T04:58:29;67.30;;;30.27;;
15327;SDS011;7764;51.430;6.840;2024-01-11T05:00:58;66.93;;;29.53;;
15327;SDS011;7764;51.430;6.840;2024-01-11T05:03:25;64.10;;;30.60;;
15327;SDS011;7764;51.430;6.840;2024-01-11T05:05:52;67.90;;;32.07;;
15327;SDS011;7764;51.430;6.840;2024-01-11T05:08:19;68.33;;;30.70;;
15327;SDS011;7764;51.430;6.840;2024-01-11T05:10:46;63.47;;;30.83;;
15327;SDS011;7764;51.430;6.840;2024-01-11T05:13:13;64.63;;;31.07;;
15327;SDS011;7764;51.430;6.840;2024-01-11T05:15:41;64.90;;;30.47;;
15327;SDS011;7764;51.430;6.840;2024-01-11T05:18:09;61.70;;;29.47;;
15327;SDS011;7764;51.430;6.840;2024-01-11T05:20:36;70.27;;;30.57;;
15327;SDS011;7764;51.430;6.840;2024-01-11T05:23:03;73.40;;;31.93;;
15327;SDS011;7764;51.430;6.840;2024-01-11T05:25:31;68.20;;;31.07;;
15327;SDS011;7764;51.430;6.840;2024-01-11T05:27:58;66.47;;;31.63;;
15327;SDS011;7764;51.430;6.840;2024-01-11T05:30:25;72.63;;;35.57;;
15327;SDS011;7764;51.430;6.840;2024-01-11T05:32:53;85.37;;;39.00;;
15327;SDS011;7764;51.430;6.840;2024-01-11T05:35:21;67.33;;;29.50;;
15327;SDS011;7764;51.430;6.840;2024-01-11T05:37:49;63.17;;;29.53;;
15327;SDS011;7764;51.430;6.840;2024-01-11T05:40:16;66.00;;;30.17;;
15327;SDS011;7764;51.430;6.840;2024-01-11T05:42:43;68.13;;;31.00;;
15327;SDS011;7764;51.430;6.840;2024-01-11T05:45:10;55.20;;;25.33;;
15327;SDS011;7764;51.430;6.840;2024-01-11T05:47:37;63.93;;;31.07;;
15327;SDS011;7764;51.430;6.840;2024-01-11T05:50:05;66.90;;;30.90;;
15327;SDS011;7764;51.430;6.840;2024-01-11T05:52:34;62.87;;;28.73;;
15327;SDS011;7764;51.430;6.840;2024-01-11T05:55:01;66.20;;;31.57;;
15327;SDS011;7764;51.430;6.840;2024-01-11T05:57:28;62.33;;;28.37;;
15327;SDS011;7764;51.430;6.840;2024-01-11T05:59:55;70.10;;;32.40;;
15327;SDS011;7764;51.430;6.840;2024-01-11T06:02:22;66.00;;;30.50;;
15327;SDS011;7764;51.430;6.840;2024-01-11T06:04:49;73.23;;;33.27;;
15327;SDS011;7764;51.430;6.840;2024-01-11T06:07:16;71.07;;;33.40;;
15327;SDS011;7764;51.430;6.840;2024-01-11T06:09:45;61.63;;;30.77;;
15327;SDS011;7764;51.430;6.840;2024-01-11T06:12:12;64.00;;;31.73;;
15327;SDS011;7764;51.430;6.840;2024-01-11T06:14:39;64.17;;;30.77;;
15327;SDS011;7764;51.430;6.840;2024-01-11T06:17:06;64.07;;;30.23;;
15327;SDS011;7764;51.430;6.840;2024-01-11T06:19:36;64.67;;;31.67;;
15327;SDS011;7764;51.430;6.840;2024-01-11T06:22:03;66.83;;;31.40;;
15327;SDS011;7764;51.430;6.840;2024-01-11T06:24:32;74.87;;;32.63;;
15327;SDS011;7764;51.430;6.840;2024-01-11T06:27:00;64.70;;;31.77;;
15327;SDS011;7764;51.430;6.840;2024-01-11T06:29:27;62.47;;;31.30;;
15327;SDS011;7764;51.430;6.840;2024-01-11T06:31:54;64.57;;;31.50;;
15327;SDS011;7764;51.430;6.840;2024-01-11T06:34:21;65.57;;;32.47;;
15327;SDS011;7764;51.430;6.840;2024-01-11T06:36:48;67.80;;;31.57;;
15327;SDS011;7764;51.430;6.840;2024-01-11T06:39:16;66.97;;;30.67;;
15327;SDS011;7764;51.430;6.840;2024-01-11T06:41:43;65.83;;;31.90;;
15327;SDS011;7764;51.430;6.840;2024-01-11T06:44:11;70.90;;;33.00;;
15327;SDS011;7764;51.430;6.840;2024-01-11T06:46:39;66.93;;;31.17;;
15327;SDS011;7764;51.430;6.840;2024-01-11T06:49:06;66.77;;;31.17;;
15327;SDS011;7764;51.430;6.840;2024-01-11T06:51:33;64.00;;;31.50;;
15327;SDS011;7764;51.430;6.840;2024-01-11T06:54:00;143.27;;;61.07;;
15327;SDS011;7764;51.430;6.840;2024-01-11T06:56:28;72.07;;;29.67;;
15327;SDS011;7764;51.430;6.840;2024-01-11T06:58:55;72.03;;;30.93;;
15327;SDS011;7764;51.430;6.840;2024-01-11T07:01:23;68.47;;;31.10;;
15327;SDS011;7764;51.430;6.840;2024-01-11T07:03:50;64.27;;;32.30;;
15327;SDS011;7764;51.430;6.840;2024-01-11T07:06:18;69.63;;;32.83;;
15327;SDS011;7764;51.430;6.840;2024-01-11T07:08:45;68.23;;;30.43;;
15327;SDS011;7764;51.430;6.840;2024-01-11T07:11:12;60.90;;;30.23;;
15327;SDS011;7764;51.430;6.840;2024-01-11T07:13:39;69.13;;;31.37;;
15327;SDS011;7764;51.430;6.840;2024-01-11T07:16:07;66.90;;;30.83;;
15327;SDS011;7764;51.430;6.840;2024-01-11T07:18:36;68.37;;;30.57;;
15327;SDS011;7764;51.430;6.840;2024-01-11T07:21:03;66.13;;;29.93;;
15327;SDS011;7764;51.430;6.840;2024-01-11T07:23:30;74.67;;;32.87;;
15327;SDS011;7764;51.430;6.840;2024-01-11T07:25:57;69.33;;;32.23;;
15327;SDS011;7764;51.430;6.840;2024-01-11T07:28:24;65.80;;;31.03;;
15327;SDS011;7764;51.430;6.840;2024-01-11T07:30:51;64.43;;;30.43;;
15327;SDS011;7764;51.430;6.840;2024-01-11T07:33:19;66.90;;;32.20;;
15327;SDS011;7764;51.430;6.840;2024-01-11T07:35:47;66.10;;;31.70;;
15327;SDS011;7764;51.430;6.840;2024-01-11T07:38:15;65.30;;;31.63;;
15327;SDS011;7764;51.430;6.840;2024-01-11T07:40:42;70.10;;;31.00;;
15327;SDS011;7764;51.430;6.840;2024-01-11T07:43:09;66.50;;;31.23;;
15327;SDS011;7764;51.430;6.840;2024-01-11T07:45:37;71.23;;;32.20;;
15327;SDS011;7764;51.430;6.840;2024-01-11T07:48:04;71.40;;;33.10;;
15327;SDS011;7764;51.430;6.840;2024-01-11T07:50:32;67.47;;;32.17;;
15327;SDS011;7764;51.430;6.840;2024-01-11T07:53:01;74.13;;;32.70;;
15327;SDS011;7764;51.430;6.840;2024-01-11T07:55:29;65.00;;;31.30;;
15327;SDS011;7764;51.430;6.840;2024-01-11T07:57:56;66.63;;;32.10;;
15327;SDS011;7764;51.430;6.840;2024-01-11T08:00:23;68.70;;;31.57;;
15327;SDS011;7764;51.430;6.840;2024-01-11T08:02:50;68.23;;;31.83;;
15327;SDS011;7764;51.430;6.840;2024-01-11T08:05:19;70.83;;;32.13;;
15327;SDS011;7764;51.430;6.840;2024-01-11T08:07:46;73.03;;;32.87;;
15327;SDS011;7764;51.430;6.840;2024-01-11T08:10:15;70.93;;;32.37;;
15327;SDS011;7764;51.430;6.840;2024-01-11T08:12:42;73.53;;;34.07;;
15327;SDS011;7764;51.430;6.840;2024-01-11T08:15:09;66.57;;;32.37;;
15327;SDS011;7764;51.430;6.840;2024-01-11T08:17:37;70.07;;;33.10;;
15327;SDS011;7764;51.430;6.840;2024-01-11T08:20:05;67.37;;;32.60;;
15327;SDS011;7764;51.430;6.840;2024-01-11T08:22:33;70.30;;;34.10;;
15327;SDS011;7764;51.430;6.840;2024-01-11T08:25:01;67.90;;;32.03;;
15327;SDS011;7764;51.430;6.840;2024-01-11T08:27:31;69.90;;;33.47;;
15327;SDS011;7764;51.430;6.840;2024-01-11T08:29:58;66.37;;;32.50;;
15327;SDS011;7764;51.430;6.840;2024-01-11T08:32:26;67.13;;;32.47;;
15327;SDS011;7764;51.430;6.840;2024-01-11T08:34:53;69.87;;;33.50;;
15327;SDS011;7764;51.430;6.840;2024-01-11T08:37:21;66.87;;;33.00;;
15327;SDS011;7764;51.430;6.840;2024-01-11T08:39:48;69.33;;;33.70;;
15327;SDS011;7764;51.430;6.840;2024-01-11T08:42:15;66.67;;;31.87;;
15327;SDS011;7764;51.430;6.840;2024-01-11T08:44:44;63.23;;;32.23;;
15327;SDS011;7764;51.430;6.840;2024-01-11T08:47:12;63.83;;;32.83;;
15327;SDS011;7764;51.430;6.840;2024-01-11T08:49:40;65.07;;;31.93;;
15327;SDS011;7764;51.430;6.840;2024-01-11T08:52:07;68.93;;;32.60;;
15327;SDS011;7764;51.430;6.840;2024-01-11T08:54:34;69.30;;;34.33;;
15327;SDS011;7764;51.430;6.840;2024-01-11T08:57:01;70.07;;;33.87;;
15327;SDS011;7764;51.430;6.840;2024-01-11T08:59:29;66.17;;;33.37;;
15327;SDS011;7764;51.430;6.840;2024-01-11T09:01:57;69.70;;;32.83;;
15327;SDS011;7764;51.430;6.840;2024-01-11T09:04:24;74.43;;;33.27;;
15327;SDS011;7764;51.430;6.840;2024-01-11T09:06:53;67.30;;;32.90;;
15327;SDS011;7764;51.430;6.840;2024-01-11T09:09:21;66.73;;;33.97;;
15327;SDS011;7764;51.430;6.840;2024-01-11T09:11:48;69.13;;;34.00;;
15327;SDS011;7764;51.430;6.840;2024-01-11T09:14:15;71.50;;;35.27;;
15327;SDS011;7764;51.430;6.840;2024-01-11T09:16:42;70.73;;;35.07;;
15327;SDS011;7764;51.430;6.840;2024-01-11T09:19:12;73.23;;;35.67;;
15327;SDS011;7764;51.430;6.840;2024-01-11T09:21:39;78.63;;;33.80;;
15327;SDS011;7764;51.430;6.840;2024-01-11T09:24:07;71.77;;;35.37;;
15327;SDS011;7764;51.430;6.840;2024-01-11T09:26:34;74.80;;;35.37;;
15327;SDS011;7764;51.430;6.840;2024-01-11T09:29:02;69.03;;;36.00;;
15327;SDS011;7764;51.430;6.840;2024-01-11T09:31:29;87.73;;;40.37;;
15327;SDS011;7764;51.430;6.840;2024-01-11T09:33:56;65.77;;;33.07;;
15327;SDS011;7764;51.430;6.840;2024-01-11T09:36:24;69.93;;;35.73;;
15327;SDS011;7764;51.430;6.840;2024-01-11T09:38:51;71.90;;;35.07;;
15327;SDS011;7764;51.430;6.840;2024-01-11T09:41:18;73.07;;;35.70;;
15327;SDS011;7764;51.430;6.840;2024-01-11T09:43:46;66.97;;;34.60;;
15327;SDS011;7764;51.430;6.840;2024-01-11T09:46:14;69.73;;;33.97;;
15327;SDS011;7764;51.430;6.840;2024-01-11T09:48:43;72.07;;;35.07;;
15327;SDS011;7764;51.430;6.840;2024-01-11T09:51:10;70.27;;;34.20;;
15327;SDS011;7764;51.430;6.840;2024-01-11T09:53:38;66.20;;;31.50;;
15327;SDS011;7764;51.430;6.840;2024-01-11T09:56:07;65.07;;;32.87;;
15327;SDS011;7764;51.430;6.840;2024-01-11T09:58:35;64.83;;;33.53;;
15327;SDS011;7764;51.430;6.840;2024-01-11T10:01:02;66.23;;;34.40;;
15327;SDS011;7764;51.430;6.840;2024-01-11T10:03:31;65.97;;;32.27;;
15327;SDS011;7764;51.430;6.840;2024-01-11T10:05:58;69.50;;;34.73;;
15327;SDS011;7764;51.430;6.840;2024-01-11T10:08:25;72.37;;;34.30;;
15327;SDS011;7764;51.430;6.840;2024-01-11T10:10:54;67.83;;;31.40;;
15327;SDS011;7764;51.430;6.840;2024-01-11T10:13:25;76.63;;;33.97;;
15327;SDS011;7764;51.430;6.840;2024-01-11T10:15:52;64.47;;;32.93;;
15327;SDS011;7764;51.430;6.840;2024-01-11T10:18:21;69.43;;;34.00;;
15327;SDS011;7764;51.430;6.840;2024-01-11T10:20:48;66.90;;;33.33;;
15327;SDS011;7764;51.430;6.840;2024-01-11T10:23:17;64.77;;;33.80;;
15327;SDS011;7764;51.430;6.840;2024-01-11T10:25:44;71.27;;;31.97;;
15327;SDS011;7764;51.430;6.840;2024-01-11T10:28:14;66.13;;;32.27;;
15327;SDS011;7764;51.430;6.840;2024-01-11T10:30:45;66.63;;;33.13;;
15327;SDS011;7764;51.430;6.840;2024-01-11T10:33:12;71.73;;;33.97;;
15327;SDS011;7764;51.430;6.840;2024-01-11T10:35:39;66.20;;;32.53;;
15327;SDS011;7764;51.430;6.840;2024-01-11T10:38:08;65.23;;;33.43;;
15327;SDS011;7764;51.430;6.840;2024-01-11T10:40:39;70.67;;;33.67;;
15327;SDS011;7764;51.430;6.840;2024-01-11T10:43:07;61.17;;;32.77;;
15327;SDS011;7764;51.430;6.840;2024-01-11T10:45:37;60.73;;;31.50;;
15327;SDS011;7764;51.430;6.840;2024-01-11T10:48:06;66.27;;;33.30;;
15327;SDS011;7764;51.430;6.840;2024-01-11T10:50:34;68.23;;;34.87;;
15327;SDS011;7764;51.430;6.840;2024-01-11T10:53:03;60.93;;;30.30;;
15327;SDS011;7764;51.430;6.840;2024-01-11T10:55:31;66.53;;;32.13;;
15327;SDS011;7764;51.430;6.840;2024-01-11T10:57:59;65.47;;;33.50;;
15327;SDS011;7764;51.430;6.840;2024-01-11T11:00:27;62.27;;;33.10;;
15327;SDS011;7764;51.430;6.840;2024-01-11T11:02:55;63.73;;;32.23;;
15327;SDS011;7764;51.430;6.840;2024-01-11T11:05:22;61.20;;;32.13;;
15327;SDS011;7764;51.430;6.840;2024-01-11T11:07:50;69.40;;;32.97;;
15327;SDS011;7764;51.430;6.840;2024-01-11T11:10:18;63.50;;;33.03;;
15327;SDS011;7764;51.430;6.840;2024-01-11T11:12:46;65.67;;;32.13;;
15327;SDS011;7764;51.430;6.840;2024-01-11T11:15:13;61.23;;;31.47;;
15327;SDS011;7764;51.430;6.840;2024-01-11T11:17:42;61.30;;;32.23;;
15327;SDS011;7764;51.430;6.840;2024-01-11T11:20:12;58.70;;;30.80;;
15327;SDS011;7764;51.430;6.840;2024-01-11T11:22:39;59.33;;;31.73;;
15327;SDS011;7764;51.430;6.840;2024-01-11T11:25:08;60.90;;;32.13;;
15327;SDS011;7764;51.430;6.840;2024-01-11T11:27:35;63.17;;;29.43;;
15327;SDS011;7764;51.430;6.840;2024-01-11T11:30:03;59.00;;;30.27;;
15327;SDS011;7764;51.430;6.840;2024-01-11T11:32:37;55.47;;;30.33;;
15327;SDS011;7764;51.430;6.840;2024-01-11T11:35:06;60.63;;;30.13;;
15327;SDS011;7764;51.430;6.840;2024-01-11T11:37:37;52.50;;;28.40;;
15327;SDS011;7764;51.430;6.840;2024-01-11T11:40:04;58.77;;;28.57;;
15327;SDS011;7764;51.430;6.840;2024-01-11T11:42:33;57.83;;;29.03;;
15327;SDS011;7764;51.430;6.840;2024-01-11T11:45:01;51.43;;;26.43;;
15327;SDS011;7764;51.430;6.840;2024-01-11T11:47:33;53.43;;;26.67;;
15327;SDS011;7764;51.430;6.840;2024-01-11T11:50:04;50.83;;;26.33;;
15327;SDS011;7764;51.430;6.840;2024-01-11T11:52:32;51.87;;;28.37;;
15327;SDS011;7764;51.430;6.840;2024-01-11T11:55:01;52.50;;;26.13;;
15327;SDS011;7764;51.430;6.840;2024-01-11T11:57:29;47.67;;;25.80;;
15327;SDS011;7764;51.430;6.840;2024-01-11T11:59:56;55.10;;;27.50;;
15327;SDS011;7764;51.430;6.840;2024-01-11T12:02:24;55.57;;;27.53;;
15327;SDS011;7764;51.430;6.840;2024-01-11T12:04:52;52.27;;;27.77;;
15327;SDS011;7764;51.430;6.840;2024-01-11T12:07:19;49.97;;;26.93;;
15327;SDS011;7764;51.430;6.840;2024-01-11T12:09:47;48.73;;;25.43;;
15327;SDS011;7764;51.430;6.840;2024-01-11T12:12:16;54.27;;;27.73;;
15327;SDS011;7764;51.430;6.840;2024-01-11T12:14:45;52.00;;;27.00;;
15327;SDS011;7764;51.430;6.840;2024-01-11T12:17:13;48.33;;;25.63;;
15327;SDS011;7764;51.430;6.840;2024-01-11T12:19:41;52.80;;;26.70;;
15327;SDS011;7764;51.430;6.840;2024-01-11T12:22:08;52.07;;;26.20;;
15327;SDS011;7764;51.430;6.840;2024-01-11T12:24:35;48.90;;;24.87;;
15327;SDS011;7764;51.430;6.840;2024-01-11T12:27:03;55.67;;;27.40;;
15327;SDS011;7764;51.430;6.840;2024-01-11T12:29:31;51.27;;;26.33;;
15327;SDS011;7764;51.430;6.840;2024-01-11T12:31:59;56.63;;;26.80;;
15327;SDS011;7764;51.430;6.840;2024-01-11T12:34:26;51.80;;;24.80;;
15327;SDS011;7764;51.430;6.840;2024-01-11T12:36:53;49.43;;;25.67;;
15327;SDS011;7764;51.430;6.840;2024-01-11T12:39:25;45.03;;;25.27;;
15327;SDS011;7764;51.430;6.840;2024-01-11T12:41:54;46.30;;;25.07;;
15327;SDS011;7764;51.430;6.840;2024-01-11T12:44:22;44.47;;;24.53;;
15327;SDS011;7764;51.430;6.840;2024-01-11T12:46:51;47.87;;;24.20;;
15327;SDS011;7764;51.430;6.840;2024-01-11T12:49:18;42.20;;;22.70;;
15327;SDS011;7764;51.430;6.840;2024-01-11T12:51:46;47.87;;;23.83;;
15327;SDS011;7764;51.430;6.840;2024-01-11T12:54:13;44.90;;;22.80;;
15327;SDS011;7764;51.430;6.840;2024-01-11T12:56:44;38.70;;;20.50;;
15327;SDS011;7764;51.430;6.840;2024-01-11T12:59:11;43.17;;;21.70;;
15327;SDS011;7764;51.430;6.840;2024-01-11T13:01:41;42.43;;;22.47;;
15327;SDS011;7764;51.430;6.840;2024-01-11T13:04:10;47.33;;;23.87;;
15327;SDS011;7764;51.430;6.840;2024-01-11T13:06:37;45.73;;;24.77;;
15327;SDS011;7764;51.430;6.840;2024-01-11T13:09:04;47.60;;;26.10;;
15327;SDS011;7764;51.430;6.840;2024-01-11T13:11:33;42.43;;;24.27;;
15327;SDS011;7764;51.430;6.840;2024-01-11T13:14:00;47.77;;;25.53;;
15327;SDS011;7764;51.430;6.840;2024-01-11T13:16:31;47.00;;;25.50;;
15327;SDS011;7764;51.430;6.840;2024-01-11T13:18:58;43.93;;;23.60;;
15327;SDS011;7764;51.430;6.840;2024-01-11T13:21:27;44.70;;;25.03;;
15327;SDS011;7764;51.430;6.840;2024-01-11T13:23:54;43.30;;;22.43;;
15327;SDS011;7764;51.430;6.840;2024-01-11T13:26:22;44.00;;;23.40;;
15327;SDS011;7764;51.430;6.840;2024-01-11T13:28:49;48.37;;;26.93;;
15327;SDS011;7764;51.430;6.840;2024-01-11T13:31:17;41.07;;;22.40;;
15327;SDS011;7764;51.430;6.840;2024-01-11T13:33:45;44.43;;;23.37;;
15327;SDS011;7764;51.430;6.840;2024-01-11T13:36:14;42.33;;;21.10;;
15327;SDS011;7764;51.430;6.840;2024-01-11T13:38:42;42.97;;;21.90;;
15327;SDS011;7764;51.430;6.840;2024-01-11T13:41:09;40.87;;;22.10;;
15327;SDS011;7764;51.430;6.840;2024-01-11T13:43:36;40.67;;;20.70;;
15327;SDS011;7764;51.430;6.840;2024-01-11T13:46:03;44.17;;;21.27;;
15327;SDS011;7764;51.430;6.840;2024-01-11T13:48:31;34.73;;;18.47;;
15327;SDS011;7764;51.430;6.840;2024-01-11T13:50:58;38.90;;;21.43;;
15327;SDS011;7764;51.430;6.840;2024-01-11T13:53:25;35.30;;;19.17;;
15327;SDS011;7764;51.430;6.840;2024-01-11T13:55:54;37.67;;;19.90;;
15327;SDS011;7764;51.430;6.840;2024-01-11T13:58:21;33.77;;;18.43;;
15327;SDS011;7764;51.430;6.840;2024-01-11T14:00:48;35.27;;;18.73;;
15327;SDS011;7764;51.430;6.840;2024-01-11T14:03:15;35.37;;;19.07;;
15327;SDS011;7764;51.430;6.840;2024-01-11T14:05:44;33.33;;;19.50;;
15327;SDS011;7764;51.430;6.840;2024-01-11T14:08:12;35.77;;;19.23;;
15327;SDS011;7764;51.430;6.840;2024-01-11T14:10:39;35.93;;;19.30;;
15327;SDS011;7764;51.430;6.840;2024-01-11T14:13:08;37.63;;;19.93;;
15327;SDS011;7764;51.430;6.840;2024-01-11T14:15:35;37.50;;;18.23;;
15327;SDS011;7764;51.430;6.840;2024-01-11T14:18:03;36.10;;;20.40;;
15327;SDS011;7764;51.430;6.840;2024-01-11T14:20:30;36.67;;;20.70;;
15327;SDS011;7764;51.430;6.840;2024-01-11T14:22:59;36.23;;;19.07;;
15327;SDS011;7764;51.430;6.840;2024-01-11T14:25:26;37.43;;;19.77;;
15327;SDS011;7764;51.430;6.840;2024-01-11T14:27:54;40.50;;;19.33;;
15327;SDS011;7764;51.430;6.840;2024-01-11T14:30:23;37.17;;;18.70;;
15327;SDS011;7764;51.430;6.840;2024-01-11T14:32:51;35.57;;;19.67;;
15327;SDS011;7764;51.430;6.840;2024-01-11T14:35:18;34.80;;;19.20;;